Time;durP1;ratioP1;P1;durP2;ratioP2;P2;SDS_P1;SDS_P2;PMS_P1;PMS_P2;Temp;Humidity;BMP_temperature;BMP_pressure;BME280_temperature;BME280_humidity;BME280_pressure;Samples;Min_cycle;Max_cycle;Signal;HPM_P1;HPM_P2
2022/08/25 00:00:10;;;;;;;;;;;;;;;26.52;53.08;99096.25;5012094;28;19916;-77
2022/08/25 00:02:35;;;;;;;;;;;;;;;26.52;52.82;99096.25;5012015;28;20001;-77
2022/08/25 00:05:00;;;;;;;;;;;;;;;26.51;53.16;99103.56;5011938;28;19916;-77
2022/08/25 00:07:25;;;;;;;;;;;;;;;26.45;53.79;99096.59;5011910;28;19920;-77
2022/08/25 00:09:51;;;;;;;;;;;;;;;26.37;52.87;99094.56;5012005;28;19913;-77
2022/08/25 00:12:17;;;;;;;;;;;;;;;26.33;53.97;99095.44;5043517;28;19913;-77
2022/08/25 00:14:42;;;;;;;;;;;;;;;26.28;54.05;99085.47;5043447;28;20299;-77
2022/08/25 00:17:08;;;;;;;;;;;;;;;26.23;53.28;99086.34;5014700;28;19909;-78
2022/08/25 00:19:34;;;;;;;;;;;;;;;26.21;53.81;99091.22;5014292;28;19917;-77
2022/08/25 00:22:00;;;;;;;;;;;;;;;26.23;54.53;99090.94;5014356;28;19909;-77
2022/08/25 00:24:25;;;;;;;;;;;;;;;26.23;53.77;99080.91;5047387;28;19979;-77
2022/08/25 00:26:53;;;;;;;;;;;;;;;26.20;54.05;99086.91;5047276;28;19909;-77
2022/08/25 00:29:19;;;;;;;;;;;;;;;26.14;55.07;99095.41;5014097;28;19917;-77
2022/08/25 00:31:45;;;;;;;;;;;;;;;26.12;54.19;99086.75;5015381;28;19960;-78
2022/08/25 00:34:13;;;;;;;;;;;;;;;26.09;54.74;99090.84;5015325;28;19948;-77
2022/08/25 00:36:39;;;;;;;;;;;;;;;26.12;54.15;99090.28;5015292;28;19910;-77
2022/08/25 00:39:05;;;;;;;;;;;;;;;26.12;54.07;99084.06;5015471;28;20000;-77
2022/08/25 00:41:30;;;;;;;;;;;;;;;26.10;54.84;99086.25;5047165;28;20313;-77
2022/08/25 00:43:57;;;;;;;;;;;;;;;26.12;54.17;99089.47;5015286;28;19910;-77
2022/08/25 00:46:25;;;;;;;;;;;;;;;26.10;53.89;99084.34;5015384;28;19909;-77
2022/08/25 00:48:54;;;;;;;;;;;;;;;26.06;54.12;99086.03;5015490;28;20428;-78
2022/08/25 00:51:24;;;;;;;;;;;;;;;26.06;54.90;99088.72;5015840;28;19913;-77
2022/08/25 00:53:50;;;;;;;;;;;;;;;26.05;54.25;99070.88;5015700;28;20394;-77
2022/08/25 00:56:16;;;;;;;;;;;;;;;26.03;54.30;99077.69;5015063;28;19977;-77
2022/08/25 00:58:41;;;;;;;;;;;;;;;26.01;54.42;99077.16;5015050;28;19909;-77
2022/08/25 01:01:07;;;;;;;;;;;;;;;26.00;54.60;99075.53;5046794;28;19917;-77
2022/08/25 01:03:32;;;;;;;;;;;;;;;25.95;55.25;99076.41;5014965;28;19917;-77
2022/08/25 01:05:59;;;;;;;;;;;;;;;25.93;54.91;99076.69;5014829;28;19916;-77
2022/08/25 01:08:27;;;;;;;;;;;;;;;25.93;54.92;99074.00;5046518;28;19909;-77
2022/08/25 01:10:53;;;;;;;;;;;;;;;25.96;54.23;99078.00;5014632;28;20306;-77
2022/08/25 01:13:22;;;;;;;;;;;;;;;25.96;54.28;99092.34;5013301;28;19909;-77
2022/08/25 01:15:48;;;;;;;;;;;;;;;25.95;54.86;99085.31;5014452;28;19910;-77
2022/08/25 01:18:14;;;;;;;;;;;;;;;25.92;54.56;99080.50;5046205;28;20444;-77
2022/08/25 01:20:40;;;;;;;;;;;;;;;25.91;54.96;99083.50;5014449;28;19944;-77
2022/08/25 01:23:06;;;;;;;;;;;;;;;25.93;54.17;99084.00;5014428;28;20357;-77
2022/08/25 01:25:49;;;;;;;;;;;;;;;25.92;55.20;99072.38;5014388;28;19905;-77
2022/08/25 01:28:16;;;;;;;;;;;;;;;25.92;54.48;99082.41;5014189;28;19909;-77
2022/08/25 01:30:41;;;;;;;;;;;;;;;25.91;55.04;99083.50;5014167;28;19972;-77
2022/08/25 01:33:08;;;;;;;;;;;;;;;25.89;54.54;99086.47;5046094;28;19949;-77
2022/08/25 01:35:33;;;;;;;;;;;;;;;25.87;54.61;99079.75;5014277;28;19910;-77
2022/08/25 01:38:02;;;;;;;;;;;;;;;25.86;54.39;99072.72;5014440;28;19917;-77
2022/08/25 01:40:28;;;;;;;;;;;;;;;25.83;54.76;99067.91;5012973;28;19910;-77
2022/08/25 01:43:10;;;;;;;;;;;;;;;25.81;54.60;99056.56;5014510;28;19932;-77
2022/08/25 01:45:36;;;;;;;;;;;;;;;25.78;54.95;99051.75;5014386;28;19914;-77
2022/08/25 01:48:02;;;;;;;;;;;;;;;25.77;55.08;99045.53;5014134;28;19917;-77
2022/08/25 01:50:27;;;;;;;;;;;;;;;25.74;55.68;99045.31;5012792;28;21358;-77
2022/08/25 01:52:58;;;;;;;;;;;;;;;25.70;54.98;99036.97;5013992;28;19984;-77
2022/08/25 01:55:23;;;;;;;;;;;;;;;25.69;55.28;99037.25;5013985;28;19917;-78
2022/08/25 01:57:49;;;;;;;;;;;;;;;25.69;55.09;99046.16;5014098;28;19909;-78
2022/08/25 02:00:15;;;;;;;;;;;;;;;25.64;55.79;99046.19;5013737;28;20425;-78
2022/08/25 02:02:41;;;;;;;;;;;;;;;25.58;56.03;99044.66;5013683;28;20011;-78
2022/08/25 02:05:07;;;;;;;;;;;;;;;25.52;56.15;99038.50;5013769;28;19913;-78
2022/08/25 02:07:33;;;;;;;;;;;;;;;25.49;56.38;99040.97;5045460;28;19917;-78
2022/08/25 02:09:58;;;;;;;;;;;;;;;25.34;56.65;99037.34;5013802;28;19910;-78
2022/08/25 02:12:24;;;;;;;;;;;;;;;25.32;57.72;99033.31;5013872;28;20313;-78
2022/08/25 02:14:49;;;;;;;;;;;;;;;25.22;57.23;99041.50;5013718;28;19959;-78
2022/08/25 02:17:14;;;;;;;;;;;;;;;25.16;57.51;99040.75;5013469;28;20382;-78
2022/08/25 02:19:39;;;;;;;;;;;;;;;25.11;58.43;99032.72;5013787;28;19945;-78
2022/08/25 02:22:05;;;;;;;;;;;;;;;25.03;57.90;99022.53;5014125;28;19913;-78
2022/08/25 02:24:30;;;;;;;;;;;;;;;24.99;59.42;99025.00;5013558;28;19916;-78
2022/08/25 02:26:56;;;;;;;;;;;;;;;24.90;57.85;99023.97;5045231;28;19944;-78
2022/08/25 02:29:22;;;;;;;;;;;;;;;24.81;59.54;99014.06;5013329;28;19975;-77
2022/08/25 02:31:47;;;;;;;;;;;;;;;24.86;59.43;99024.81;5013082;28;20453;-77
2022/08/25 02:34:14;;;;;;;;;;;;;;;24.81;59.49;99024.88;5013093;28;19909;-78
2022/08/25 02:36:39;;;;;;;;;;;;;;;24.78;60.33;99018.13;5044658;28;19909;-78
2022/08/25 02:39:05;;;;;;;;;;;;;;;24.77;58.63;99018.41;5012549;28;20052;-78
2022/08/25 02:41:32;;;;;;;;;;;;;;;24.76;60.18;99022.22;5013134;28;19913;-78
2022/08/25 02:43:58;;;;;;;;;;;;;;;24.76;60.26;99023.00;5013030;28;19932;-78
2022/08/25 02:46:24;;;;;;;;;;;;;;;24.80;59.29;99036.75;5012993;28;19913;-78
2022/08/25 02:48:51;;;;;;;;;;;;;;;24.77;59.55;99040.03;5012961;28;19964;-78
2022/08/25 02:51:17;;;;;;;;;;;;;;;24.72;60.02;99027.38;5011612;28;19913;-78
2022/08/25 02:53:44;;;;;;;;;;;;;;;24.70;59.20;99018.75;5011505;28;19996;-78
2022/08/25 02:56:10;;;;;;;;;;;;;;;24.71;59.74;99010.38;5012931;28;19909;-78
2022/08/25 02:58:36;;;;;;;;;;;;;;;24.62;61.42;99008.56;5013054;28;20019;-78
2022/08/25 03:01:02;;;;;;;;;;;;;;;24.62;59.58;99016.66;5012463;28;19905;-78
2022/08/25 03:03:27;;;;;;;;;;;;;;;24.58;62.48;99018.31;5044369;28;20398;-77
2022/08/25 03:05:56;;;;;;;;;;;;;;;24.59;59.60;99019.91;5012614;28;19909;-77
2022/08/25 03:08:21;;;;;;;;;;;;;;;24.36;61.45;99011.44;5012511;28;19909;-77
2022/08/25 03:10:47;;;;;;;;;;;;;;;24.31;62.08;99010.66;5011068;28;20310;-78
2022/08/25 03:13:12;;;;;;;;;;;;;;;24.33;62.19;99025.47;5012533;28;20000;-78
2022/08/25 03:15:37;;;;;;;;;;;;;;;24.29;61.03;99018.22;5012475;28;19921;-78
2022/08/25 03:18:04;;;;;;;;;;;;;;;24.33;61.47;99028.19;5012363;28;19917;-78
2022/08/25 03:20:29;;;;;;;;;;;;;;;24.40;60.59;99038.66;5012739;28;19916;-78
2022/08/25 03:22:55;;;;;;;;;;;;;;;24.47;60.69;99031.03;5012840;28;19913;-78
2022/08/25 03:28:05;;;;;;;;;;;;;;;24.50;60.59;99033.19;5012237;28;19917;-78
2022/08/25 03:30:31;;;;;;;;;;;;;;;24.48;59.79;99029.97;5012283;28;19969;-77
2022/08/25 03:32:56;;;;;;;;;;;;;;;24.43;61.38;99026.50;5012233;28;20361;-78
2022/08/25 03:35:22;;;;;;;;;;;;;;;24.33;63.07;99024.69;5012517;28;19999;-78
2022/08/25 03:37:47;;;;;;;;;;;;;;;24.30;60.74;99023.34;5012533;28;19909;-77
2022/08/25 03:40:15;;;;;;;;;;;;;;;24.28;62.30;99025.50;5012348;28;19944;-78
2022/08/25 03:42:41;;;;;;;;;;;;;;;24.26;61.79;99016.06;5012643;28;19909;-78
2022/08/25 03:45:07;;;;;;;;;;;;;;;24.26;61.52;99022.25;5012261;28;19909;-78
2022/08/25 03:47:33;;;;;;;;;;;;;;;24.19;61.70;99027.16;5011132;28;20000;-78
2022/08/25 03:49:58;;;;;;;;;;;;;;;24.08;62.43;99026.44;5011615;28;20358;-78
2022/08/25 03:52:24;;;;;;;;;;;;;;;24.11;61.96;99026.94;5012357;28;19964;-77
2022/08/25 03:54:49;;;;;;;;;;;;;;;24.16;62.67;99021.53;5012085;28;19913;-77
2022/08/25 03:57:14;;;;;;;;;;;;;;;24.13;62.63;99022.88;5043777;28;19918;-77
2022/08/25 03:59:40;;;;;;;;;;;;;;;24.12;61.28;99021.28;5012288;28;19913;-77
2022/08/25 04:02:05;;;;;;;;;;;;;;;24.14;62.12;99019.09;5012039;28;19916;-78
2022/08/25 04:04:31;;;;;;;;;;;;;;;24.09;63.88;99028.03;5011939;28;19917;-77
2022/08/25 04:06:57;;;;;;;;;;;;;;;24.17;61.73;99028.53;5011967;28;19909;-77
2022/08/25 04:09:23;;;;;;;;;;;;;;;24.22;61.46;99034.69;5043652;28;19910;-77
2022/08/25 04:11:48;;;;;;;;;;;;;;;24.23;63.58;99032.81;5011890;28;19914;-77
2022/08/25 04:14:14;;;;;;;;;;;;;;;24.26;61.71;99018.75;5011872;28;20314;-77
2022/08/25 04:16:39;;;;;;;;;;;;;;;24.28;61.97;99016.63;5011965;28;19909;-78
2022/08/25 04:19:06;;;;;;;;;;;;;;;24.26;61.12;99016.88;5011817;28;20427;-78
2022/08/25 04:21:32;;;;;;;;;;;;;;;24.30;62.68;99009.03;5010603;28;19909;-78
2022/08/25 04:23:57;;;;;;;;;;;;;;;24.30;62.06;99017.16;5011922;28;20052;-78
2022/08/25 04:26:24;;;;;;;;;;;;;;;24.19;62.97;99010.97;5011741;28;19910;-78
2022/08/25 04:28:49;;;;;;;;;;;;;;;24.23;62.80;99013.91;5043423;28;20007;-78
2022/08/25 04:31:15;;;;;;;;;;;;;;;24.27;62.13;99020.41;5043408;28;20383;-78
2022/08/25 04:33:41;;;;;;;;;;;;;;;24.33;61.52;99028.19;5011977;28;20005;-78
2022/08/25 04:36:07;;;;;;;;;;;;;;;24.30;62.26;99034.13;5011787;28;19936;-78
2022/08/25 04:38:33;;;;;;;;;;;;;;;24.27;61.92;99037.41;5011707;28;20007;-77
2022/08/25 04:40:59;;;;;;;;;;;;;;;24.32;61.48;99025.75;5011366;28;19956;-77
2022/08/25 04:43:25;;;;;;;;;;;;;;;24.37;61.57;99028.41;5011427;28;19909;-77
2022/08/25 04:45:51;;;;;;;;;;;;;;;24.35;62.59;99025.19;5011928;28;19910;-77
2022/08/25 04:48:16;;;;;;;;;;;;;;;24.26;63.01;99027.66;5011865;28;19909;-77
2022/08/25 04:50:43;;;;;;;;;;;;;;;24.31;61.66;99022.25;5043258;28;19914;-78
2022/08/25 04:53:08;;;;;;;;;;;;;;;24.36;61.53;99016.03;5010209;28;19941;-78
2022/08/25 04:55:38;;;;;;;;;;;;;;;24.39;61.09;99013.56;5011542;28;19951;-78
2022/08/25 04:58:04;;;;;;;;;;;;;;;24.41;61.73;99015.97;5011459;28;19921;-77
2022/08/25 05:00:29;;;;;;;;;;;;;;;24.51;61.25;99010.50;5011503;28;19917;-77
2022/08/25 05:02:54;;;;;;;;;;;;;;;24.55;60.89;99013.47;5014037;28;19971;-78
2022/08/25 05:05:20;;;;;;;;;;;;;;;24.57;60.28;99008.59;5014644;28;20398;-78
2022/08/25 05:07:45;;;;;;;;;;;;;;;24.62;60.78;99013.97;5014593;28;19969;-77
2022/08/25 05:10:11;;;;;;;;;;;;;;;24.58;60.51;99012.91;5046261;28;19909;-77
2022/08/25 05:12:36;;;;;;;;;;;;;;;24.67;60.80;99006.63;5014593;28;19909;-78
2022/08/25 05:15:49;;;;;;;;;;;;;;;24.80;59.75;99007.06;5014717;28;19929;-77
2022/08/25 05:17:46;;;;;;;;;;;;;;;24.85;59.97;99013.22;5014538;28;19917;-77
2022/08/25 05:20:12;;;;;;;;;;;;;;;24.95;59.41;99006.91;5046559;28;20298;-77
2022/08/25 05:22:37;;;;;;;;;;;;;;;24.99;59.75;99011.47;5014739;28;19909;-77
2022/08/25 05:25:02;;;;;;;;;;;;;;;25.01;59.30;99006.59;5014305;28;19996;-77
2022/08/25 05:27:27;;;;;;;;;;;;;;;25.04;58.44;99005.22;5014181;28;19902;-77
2022/08/25 05:29:53;;;;;;;;;;;;;;;25.05;58.91;99012.25;5014093;28;20003;-77
2022/08/25 05:32:18;;;;;;;;;;;;;;;25.05;59.32;99006.84;5046111;28;20420;-77
2022/08/25 05:34:43;;;;;;;;;;;;;;;25.02;59.32;99013.63;5012877;28;19915;-77
2022/08/25 05:37:08;;;;;;;;;;;;;;;25.02;58.93;99018.22;5024236;28;20381;-77
2022/08/25 05:39:34;;;;;;;;;;;;;;;24.95;59.26;99013.13;5033607;28;19920;-78
2022/08/25 05:41:59;;;;;;;;;;;;;;;24.99;59.56;99007.97;5033917;28;20378;-78
2022/08/25 05:44:25;;;;;;;;;;;;;;;25.08;59.54;99005.47;5031889;28;19913;-77
2022/08/25 05:46:51;;;;;;;;;;;;;;;25.14;59.20;99002.41;5033940;28;19916;-77
2022/08/25 05:49:16;;;;;;;;;;;;;;;25.25;58.11;99001.22;5033785;28;20301;-77
2022/08/25 05:51:41;;;;;;;;;;;;;;;25.30;58.85;98992.28;5033208;28;19917;-77
2022/08/25 05:54:07;;;;;;;;;;;;;;;25.33;58.62;98997.91;5031515;28;20309;-77
2022/08/25 05:56:32;;;;;;;;;;;;;;;25.42;57.49;99005.38;5032623;28;20392;-78
2022/08/25 05:58:57;;;;;;;;;;;;;;;25.40;57.83;98986.75;5063637;28;19920;-78
2022/08/25 06:04:10;;;;;;;;;;;;;;;25.56;57.17;98995.47;5019479;28;20043;-78
2022/08/25 06:06:35;;;;;;;;;;;;;;;25.59;56.90;98998.41;5032752;28;19971;-78
2022/08/25 06:09:01;;;;;;;;;;;;;;;25.62;56.47;98991.63;5032997;28;19920;-78
2022/08/25 06:11:27;;;;;;;;;;;;;;;25.62;56.59;98987.00;5033185;28;19917;-78
2022/08/25 06:13:52;;;;;;;;;;;;;;;25.63;56.73;98985.91;5031170;28;19915;-78
2022/08/25 06:16:17;;;;;;;;;;;;;;;25.71;56.78;98992.59;5033223;28;19913;-78
2022/08/25 06:18:42;;;;;;;;;;;;;;;25.83;55.90;98994.88;5032287;28;19917;-78
2022/08/25 06:21:11;;;;;;;;;;;;;;;25.81;55.87;98986.25;5032536;28;19948;-78
2022/08/25 06:23:37;;;;;;;;;;;;;;;25.82;56.06;98988.66;5032249;28;19919;-78
2022/08/25 06:26:03;;;;;;;;;;;;;;;25.87;55.77;98991.31;5032740;28;20378;-78
2022/08/25 06:28:28;;;;;;;;;;;;;;;25.88;55.85;98989.41;5033051;28;19959;-78
2022/08/25 06:30:57;;;;;;;;;;;;;;;25.85;55.73;98992.69;5032752;28;20318;-77
2022/08/25 06:33:22;;;;;;;;;;;;;;;25.90;55.38;98982.59;5032371;28;19913;-78
2022/08/25 06:35:47;;;;;;;;;;;;;;;25.93;55.60;98982.03;5032765;28;20010;-77
2022/08/25 06:38:13;;;;;;;;;;;;;;;25.96;55.50;98989.56;5032960;28;19958;-78
2022/08/25 06:40:39;;;;;;;;;;;;;;;26.02;55.18;98990.31;5032649;28;19909;-78
2022/08/25 06:43:07;;;;;;;;;;;;;;;26.09;55.11;98992.66;5032892;28;20394;-78
2022/08/25 06:45:32;;;;;;;;;;;;;;;26.20;54.92;98994.09;5032845;28;20409;-78
2022/08/25 06:47:58;;;;;;;;;;;;;;;26.32;54.43;98986.34;5031616;28;19909;-78
2022/08/25 06:50:23;;;;;;;;;;;;;;;26.31;54.21;98984.72;5034098;28;19909;-78
2022/08/25 06:52:50;;;;;;;;;;;;;;;26.44;54.43;98999.44;5029937;28;19916;-77
2022/08/25 06:55:15;;;;;;;;;;;;;;;26.50;53.96;98992.84;5032075;28;19909;-78
2022/08/25 06:57:41;;;;;;;;;;;;;;;26.53;54.16;98984.94;5031787;28;20028;-77
2022/08/25 07:00:09;;;;;;;;;;;;;;;26.57;53.61;98991.38;5031254;28;20382;-78
2022/08/25 07:02:35;;;;;;;;;;;;;;;26.58;53.85;98989.47;5030270;28;19940;-78
2022/08/25 07:05:00;;;;;;;;;;;;;;;26.67;53.73;98984.16;5031388;28;19909;-78
2022/08/25 07:07:25;;;;;;;;;;;;;;;26.70;53.55;98989.78;5031600;28;19919;-78
2022/08/25 07:09:50;;;;;;;;;;;;;;;26.78;53.61;98986.44;5031330;28;20294;-78
2022/08/25 07:12:16;;;;;;;;;;;;;;;26.87;53.58;98994.69;5031002;28;20378;-78
2022/08/25 07:14:42;;;;;;;;;;;;;;;26.94;53.70;98997.81;5030722;28;19913;-78
2022/08/25 07:17:07;;;;;;;;;;;;;;;27.04;53.41;99000.34;5030972;28;20007;-78
2022/08/25 07:19:33;;;;;;;;;;;;;;;27.02;53.22;99016.09;5029103;28;19929;-78
2022/08/25 07:21:58;;;;;;;;;;;;;;;26.98;52.89;99009.69;5031208;28;19913;-78
2022/08/25 07:24:23;;;;;;;;;;;;;;;27.03;53.23;99006.06;5030912;28;19996;-78
2022/08/25 07:26:50;;;;;;;;;;;;;;;27.03;53.09;99011.50;5029022;28;19928;-78
2022/08/25 07:29:21;;;;;;;;;;;;;;;27.09;53.07;99015.72;5029580;28;19913;-78
2022/08/25 07:31:46;;;;;;;;;;;;;;;27.13;53.09;99014.81;5031780;28;19913;-77
2022/08/25 07:36:56;;;;;;;;;;;;;;;27.33;52.38;99026.38;5030732;28;20301;-78
2022/08/25 07:39:21;;;;;;;;;;;;;;;27.37;52.25;99027.38;5030613;28;19925;-78
2022/08/25 07:41:47;;;;;;;;;;;;;;;27.34;51.62;99026.06;5030742;28;19913;-78
2022/08/25 07:44:13;;;;;;;;;;;;;;;27.47;51.55;99024.47;5031263;28;19913;-78
2022/08/25 07:46:38;;;;;;;;;;;;;;;27.57;51.33;99032.44;5030850;28;19913;-78
2022/08/25 07:49:04;;;;;;;;;;;;;;;27.63;50.96;99025.81;5031279;28;20448;-78
2022/08/25 07:51:29;;;;;;;;;;;;;;;27.68;51.28;99027.63;5031204;28;19921;-78
2022/08/25 07:53:55;;;;;;;;;;;;;;;27.77;51.10;99028.53;5029048;28;20321;-78
2022/08/25 07:56:20;;;;;;;;;;;;;;;27.87;50.80;99028.31;5029531;28;19924;-78
2022/08/25 07:58:46;;;;;;;;;;;;;;;27.98;50.60;99021.56;5026072;28;19920;-78
2022/08/25 08:01:15;;;;;;;;;;;;;;;28.08;49.28;99021.31;5031005;28;19919;-78
2022/08/25 08:03:41;;;;;;;;;;;;;;;28.16;50.08;99023.31;5030914;28;20003;-78
2022/08/25 08:06:07;;;;;;;;;;;;;;;28.20;49.34;99018.06;5030127;28;20358;-78
2022/08/25 08:08:33;;;;;;;;;;;;;;;28.28;49.49;99020.13;5030420;28;19995;-78
2022/08/25 08:10:59;;;;;;;;;;;;;;;28.35;48.84;99019.69;5030908;28;20008;-78
2022/08/25 08:13:25;;;;;;;;;;;;;;;28.46;48.15;99021.03;5031329;28;19909;-78
2022/08/25 08:15:52;;;;;;;;;;;;;;;28.58;48.19;99017.78;5030740;28;19963;-78
2022/08/25 08:18:17;;;;;;;;;;;;;;;28.67;48.53;99015.91;5031375;28;19963;-78
2022/08/25 08:20:43;;;;;;;;;;;;;;;28.77;48.08;99010.22;5031326;28;19941;-78
2022/08/25 08:23:08;;;;;;;;;;;;;;;28.82;47.01;99017.44;5031263;28;19996;-79
2022/08/25 08:25:34;;;;;;;;;;;;;;;28.91;47.35;99026.47;5031135;28;19945;-79
2022/08/25 08:27:59;;;;;;;;;;;;;;;28.95;47.73;99022.81;5030857;28;19908;-79
2022/08/25 08:30:24;;;;;;;;;;;;;;;28.93;46.64;99014.19;5031292;28;19960;-78
2022/08/25 08:32:50;;;;;;;;;;;;;;;29.05;46.02;99016.34;5029865;28;19909;-79
2022/08/25 08:35:17;;;;;;;;;;;;;;;29.15;46.59;99016.06;5031068;28;19971;-79
2022/08/25 08:37:44;;;;;;;;;;;;;;;29.30;45.53;99014.84;5033155;28;19916;-79
2022/08/25 08:40:09;;;;;;;;;;;;;;;29.41;44.68;99008.00;5034839;28;19913;-78
2022/08/25 08:42:46;;;;;;;;;;;;;;;29.55;46.22;99006.00;5034983;28;19991;-78
2022/08/25 08:45:30;;;;;;;;;;;;;;;29.69;44.61;99001.25;5035237;28;19913;-79
2022/08/25 08:48:31;;;;;;;;;;;;;;;29.85;44.60;98998.09;5036154;28;19917;-78
2022/08/25 08:51:03;;;;;;;;;;;;;;;30.08;44.41;98993.34;4974281;28;19941;-78
2022/08/25 08:53:31;;;;;;;;;;;;;;;30.12;42.99;98991.56;5027584;28;19913;-80
2022/08/25 08:55:58;;;;;;;;;;;;;;;30.21;44.15;98990.44;5038167;28;19915;-78
2022/08/25 08:58:42;;;;;;;;;;;;;;;30.18;42.49;98974.75;5036968;28;20455;-78
2022/08/25 09:01:09;;;;;;;;;;;;;;;30.30;43.03;98979.56;5032239;28;19909;-78
2022/08/25 09:03:36;;;;;;;;;;;;;;;30.29;44.55;98967.84;5033957;28;19909;-79
2022/08/25 09:06:04;;;;;;;;;;;;;;;30.19;42.41;98970.09;5034086;28;19913;-79
2022/08/25 09:08:30;;;;;;;;;;;;;;;30.22;42.70;98966.75;5034257;28;19948;-79
2022/08/25 09:11:07;;;;;;;;;;;;;;;30.33;42.28;98962.56;5033071;28;20365;-79
2022/08/25 09:13:51;;;;;;;;;;;;;;;30.44;41.78;98955.66;5034035;28;19962;-78
2022/08/25 09:19:15;;;;;;;;;;;;;;;30.81;38.80;98943.28;5033066;28;19935;-79
2022/08/25 09:22:03;;;;;;;;;;;;;;;31.10;40.11;98944.44;5031742;28;19932;-79
2022/08/25 09:24:49;;;;;;;;;;;;;;;31.46;39.59;98944.78;5032446;28;19913;-78
2022/08/25 09:27:14;;;;;;;;;;;;;;;31.68;40.84;98943.66;5019696;28;19920;-79
2022/08/25 09:29:49;;;;;;;;;;;;;;;31.68;39.08;98945.59;5030137;28;20223;-79
2022/08/25 09:32:14;;;;;;;;;;;;;;;31.41;38.94;98946.91;5024484;28;20004;-78
2022/08/25 09:34:40;;;;;;;;;;;;;;;31.14;39.03;98937.19;5032551;28;19996;-78
2022/08/25 09:37:05;;;;;;;;;;;;;;;31.11;39.82;98929.69;5039652;28;20008;-78
2022/08/25 09:39:30;;;;;;;;;;;;;;;31.38;40.13;98932.00;5029114;28;19920;-79
2022/08/25 09:41:59;;;;;;;;;;;;;;;31.50;40.91;98940.25;5022696;28;19917;-79
2022/08/25 09:44:25;;;;;;;;;;;;;;;31.44;40.20;98927.94;5030174;28;20376;-80
2022/08/25 09:47:03;;;;;;;;;;;;;;;31.27;39.61;98920.66;5026703;28;20015;-79
2022/08/25 09:49:43;;;;;;;;;;;;;;;31.14;40.15;98926.28;5032252;28;19914;-79
2022/08/25 09:52:21;;;;;;;;;;;;;;;31.35;38.59;98927.19;5032224;28;19975;-79
2022/08/25 09:54:48;;;;;;;;;;;;;;;31.03;38.85;98844.06;5028708;28;19917;-80
2022/08/25 09:57:32;;;;;;;;;;;;;;;31.47;37.29;98926.47;5031809;28;19920;-79
2022/08/25 10:00:18;;;;;;;;;;;;;;;31.28;38.15;98913.28;5032098;28;19909;-79
2022/08/25 10:02:59;;;;;;;;;;;;;;;31.14;37.46;98913.44;5014214;28;20410;-79
2022/08/25 10:05:25;;;;;;;;;;;;;;;31.03;36.28;98911.44;5033234;28;19909;-80
2022/08/25 10:07:58;;;;;;;;;;;;;;;30.86;36.59;98913.09;5031389;28;19905;-79
2022/08/25 10:10:27;;;;;;;;;;;;;;;30.85;37.36;98911.50;5033099;28;19913;-80
2022/08/25 10:12:53;;;;;;;;;;;;;;;31.25;37.58;98908.47;5032743;28;19931;-79
2022/08/25 10:15:20;;;;;;;;;;;;;;;31.65;37.98;98902.59;5024684;28;19953;-79
2022/08/25 10:17:45;;;;;;;;;;;;;;;31.64;37.25;98901.78;5012259;28;19979;-79
2022/08/25 10:20:14;;;;;;;;;;;;;;;31.51;37.29;98898.19;5027527;28;19913;-79
2022/08/25 10:22:40;;;;;;;;;;;;;;;31.39;36.89;98903.56;5032088;28;20386;-79
2022/08/25 10:25:08;;;;;;;;;;;;;;;31.17;37.35;98892.94;5030050;28;19909;-79
2022/08/25 10:27:41;;;;;;;;;;;;;;;31.21;38.47;98899.31;5032458;28;19908;-79
2022/08/25 10:30:13;;;;;;;;;;;;;;;31.51;36.38;98892.75;5026550;28;20059;-79
2022/08/25 10:32:53;;;;;;;;;;;;;;;32.07;37.10;98895.22;5032621;28;19956;-79
2022/08/25 10:35:31;;;;;;;;;;;;;;;32.71;35.85;98900.22;5031618;28;19913;-79
2022/08/25 10:38:02;;;;;;;;;;;;;;;33.20;34.77;98884.63;5030285;28;20024;-79
2022/08/25 10:40:46;;;;;;;;;;;;;;;33.23;34.42;98877.66;5031986;28;19916;-79
2022/08/25 10:43:34;;;;;;;;;;;;;;;32.91;35.26;98893.06;5032882;28;19923;-79
2022/08/25 10:46:14;;;;;;;;;;;;;;;32.67;35.67;98886.41;5031360;28;19909;-79
2022/08/25 10:48:58;;;;;;;;;;;;;;;32.44;35.88;98887.97;5032468;28;19944;-79
2022/08/25 10:51:43;;;;;;;;;;;;;;;32.23;35.03;98880.59;5031300;28;20372;-79
2022/08/25 10:54:24;;;;;;;;;;;;;;;32.14;36.33;98882.63;5029630;28;19920;-78
2022/08/25 10:57:09;;;;;;;;;;;;;;;32.37;34.92;98880.31;5030531;28;19967;-78
2022/08/25 10:59:38;;;;;;;;;;;;;;;32.42;36.28;98871.91;5023528;28;19939;-78
2022/08/25 11:02:10;;;;;;;;;;;;;;;32.45;36.96;98879.41;5031916;28;19909;-78
2022/08/25 11:04:42;;;;;;;;;;;;;;;32.39;36.03;98871.78;5031581;28;19966;-78
2022/08/25 11:07:14;;;;;;;;;;;;;;;32.29;35.96;98873.00;5028835;28;19913;-78
2022/08/25 11:09:42;;;;;;;;;;;;;;;32.18;36.44;98877.28;5024013;28;19928;-78
2022/08/25 11:12:10;;;;;;;;;;;;;;;32.30;35.95;98874.59;5014517;28;19921;-78
2022/08/25 11:14:38;;;;;;;;;;;;;;;32.84;34.52;98874.50;5029402;28;20405;-78
2022/08/25 11:17:17;;;;;;;;;;;;;;;33.42;35.17;98873.22;5031681;28;19959;-78
2022/08/25 11:19:44;;;;;;;;;;;;;;;33.94;34.24;98858.72;5032209;28;19909;-78
2022/08/25 11:22:28;;;;;;;;;;;;;;;34.34;33.56;98860.63;5030774;28;19916;-79
2022/08/25 11:25:25;;;;;;;;;;;;;;;34.65;31.83;98857.09;5032169;28;19909;-79
2022/08/25 11:27:56;;;;;;;;;;;;;;;34.84;30.09;98850.91;5009207;28;19916;-79
2022/08/25 11:30:22;;;;;;;;;;;;;;;34.91;32.39;98851.88;5031890;28;19909;-79
2022/08/25 11:32:49;;;;;;;;;;;;;;;35.22;32.92;98862.00;5031699;28;19917;-79
2022/08/25 11:35:24;;;;;;;;;;;;;;;35.25;30.09;98849.53;5031705;28;20310;-79
2022/08/25 11:37:53;;;;;;;;;;;;;;;35.31;31.22;98857.13;5031550;28;19913;-79
2022/08/25 11:40:33;;;;;;;;;;;;;;;35.55;32.41;98858.84;5031484;28;19913;-79
2022/08/25 11:42:58;;;;;;;;;;;;;;;35.80;32.94;98862.09;5031544;28;19997;-79
2022/08/25 11:45:36;;;;;;;;;;;;;;;36.08;28.37;98853.66;5030619;28;19995;-79
2022/08/25 11:48:07;;;;;;;;;;;;;;;35.89;29.87;98837.19;5030353;28;20000;-79
2022/08/25 11:50:32;;;;;;;;;;;;;;;35.87;29.44;98840.31;5028667;28;19913;-79
2022/08/25 11:53:21;;;;;;;;;;;;;;;35.41;32.80;98841.25;5030487;28;19913;-79
2022/08/25 11:55:47;;;;;;;;;;;;;;;34.82;30.26;98831.25;5022305;28;19909;-79
2022/08/25 11:58:30;;;;;;;;;;;;;;;34.46;33.03;98835.88;5030968;28;19966;-79
2022/08/25 12:00:57;;;;;;;;;;;;;;;34.23;33.19;98830.16;5023965;28;19917;-79
2022/08/25 12:03:31;;;;;;;;;;;;;;;34.19;32.86;98831.19;5024195;28;19963;-79
2022/08/25 12:06:08;;;;;;;;;;;;;;;34.44;32.65;98821.72;5029814;28;19917;-79
2022/08/25 12:08:46;;;;;;;;;;;;;;;34.87;32.34;98818.06;5029294;28;19913;-79
2022/08/25 12:11:31;;;;;;;;;;;;;;;35.01;31.11;98818.44;5030413;28;20404;-79
2022/08/25 12:14:07;;;;;;;;;;;;;;;35.14;30.79;98810.88;5030364;28;20376;-79
2022/08/25 12:16:39;;;;;;;;;;;;;;;34.97;31.91;98816.75;5025407;28;19999;-79
2022/08/25 12:19:22;;;;;;;;;;;;;;;34.65;31.61;98805.00;5035407;28;19921;-79
2022/08/25 12:21:48;;;;;;;;;;;;;;;34.86;32.25;98807.47;5035383;28;19909;-79
2022/08/25 12:24:15;;;;;;;;;;;;;;;35.18;31.62;98798.03;5034941;28;20421;-79
2022/08/25 12:26:46;;;;;;;;;;;;;;;35.46;31.49;98794.31;5035277;28;19916;-79
2022/08/25 12:29:26;;;;;;;;;;;;;;;35.39;31.49;98788.66;5067111;28;19916;-79
2022/08/25 12:32:05;;;;;;;;;;;;;;;35.03;31.77;98782.41;5035010;28;19959;-79
2022/08/25 12:34:49;;;;;;;;;;;;;;;34.65;32.91;98785.78;5034993;28;19956;-79
2022/08/25 12:37:16;;;;;;;;;;;;;;;34.25;32.21;98792.25;5067032;28;19909;-79
2022/08/25 12:39:44;;;;;;;;;;;;;;;33.88;33.01;98797.13;5035651;28;20258;-79
2022/08/25 12:42:21;;;;;;;;;;;;;;;33.65;32.98;98787.84;5034789;28;20003;-79
2022/08/25 12:44:47;;;;;;;;;;;;;;;33.49;34.11;98782.34;5034840;28;19959;-79
2022/08/25 12:47:18;;;;;;;;;;;;;;;33.50;34.22;98778.44;5034763;28;19908;-79
2022/08/25 12:49:43;;;;;;;;;;;;;;;33.93;34.11;98787.84;5034863;28;20484;-79
2022/08/25 12:52:15;;;;;;;;;;;;;;;34.36;32.40;98779.63;5034675;28;20011;-79
2022/08/25 12:54:45;;;;;;;;;;;;;;;34.40;32.05;98788.75;5034755;28;19909;-79
2022/08/25 12:57:25;;;;;;;;;;;;;;;34.38;32.14;98784.75;5034668;28;19909;-79
2022/08/25 12:59:56;;;;;;;;;;;;;;;34.49;31.09;98779.53;5033993;28;20317;-79
2022/08/25 13:02:39;;;;;;;;;;;;;;;34.67;31.45;98781.53;5034081;28;20008;-79
2022/08/25 13:05:23;;;;;;;;;;;;;;;34.84;32.05;98790.56;5034629;28;19952;-79